Time;durP1;ratioP1;P1;durP2;ratioP2;P2;SDS_P1;SDS_P2;PMS_P1;PMS_P2;Temp;Humidity;BMP_temperature;BMP_pressure;BME280_temperature;BME280_humidity;BME280_pressure;Samples;Min_cycle;Max_cycle;Signal;HPM_P1;HPM_P2
2021/12/13 00:04:06;;;;;;;7.68;5.10;;;;;;;7.06;69.25;100909.91;10384617;28;20140;-67
2021/12/13 00:09:15;;;;;;;7.07;5.35;;;;;;;7.14;69.07;100913.94;10384026;28;20502;-67
2021/12/13 00:14:24;;;;;;;7.22;5.10;;;;;;;7.05;69.22;100913.38;10383127;28;20490;-67
2021/12/13 00:19:38;;;;;;;8.30;5.20;;;;;;;6.99;69.43;100906.63;10384065;28;20037;-67
2021/12/13 00:24:43;;;;;;;7.32;4.97;;;;;;;7.07;69.18;100906.38;10383578;28;20292;-67
2021/12/13 00:30:07;;;;;;;5.95;4.65;;;;;;;6.99;69.36;100905.75;10383160;28;20046;-67
2021/12/13 00:35:13;;;;;;;5.57;4.53;;;;;;;7.04;69.00;100906.50;10384145;28;20056;-67
2021/12/13 00:40:22;;;;;;;6.28;4.97;;;;;;;6.96;69.71;100906.69;10383619;28;20045;-67
2021/12/13 00:45:29;;;;;;;6.82;4.72;;;;;;;6.98;69.60;100914.44;10382873;28;20446;-67
2021/12/13 00:50:39;;;;;;;7.30;5.28;;;;;;;6.93;69.89;100913.75;10390381;28;20055;-67
2021/12/13 00:55:45;;;;;;;7.68;5.60;;;;;;;6.89;69.94;100907.78;10390376;28;20057;-67
2021/12/13 01:00:57;;;;;;;8.23;5.78;;;;;;;6.96;70.01;100913.63;10390733;28;20688;-67
2021/12/13 01:06:31;;;;;;;7.75;5.55;;;;;;;7.13;69.46;100912.25;10390526;28;20144;-67
2021/12/13 01:11:48;;;;;;;9.23;6.20;;;;;;;7.11;69.42;100914.06;10391237;28;20060;-67
2021/12/13 01:17:06;;;;;;;8.48;5.25;;;;;;;7.13;69.44;100921.81;10387813;28;20358;-67
2021/12/13 01:27:29;;;;;;;7.83;5.60;;;;;;;7.15;69.32;100935.63;10390132;28;20052;-67
2021/12/13 01:32:39;;;;;;;6.03;4.80;;;;;;;7.23;69.19;100933.63;10388328;28;20049;-67
2021/12/13 01:37:41;;;;;;;6.30;5.00;;;;;;;7.28;68.94;100942.19;10389919;28;20053;-68
2021/12/13 01:42:43;;;;;;;8.48;4.88;;;;;;;7.33;68.98;100944.63;10389337;28;20064;-68
2021/12/13 01:47:46;;;;;;;7.15;5.20;;;;;;;7.30;69.08;100950.78;10386718;28;20424;-67
2021/12/13 01:52:51;;;;;;;6.03;4.57;;;;;;;7.29;69.00;100956.00;10388687;28;20140;-67
2021/12/13 02:03:38;;;;;;;7.55;5.10;;;;;;;7.12;69.26;100951.34;10388453;28;20061;-67
2021/12/13 02:08:39;;;;;;;8.57;4.82;;;;;;;7.14;69.29;100955.56;10388835;28;20136;-67
2021/12/13 02:14:04;;;;;;;7.35;5.15;;;;;;;7.17;69.17;100952.91;10387870;28;20220;-68
2021/12/13 02:19:08;;;;;;;6.35;5.13;;;;;;;7.26;69.03;100949.16;10387180;28;20063;-68
2021/12/13 02:24:11;;;;;;;7.53;4.65;;;;;;;7.22;69.14;100949.31;10386749;28;20053;-68
2021/12/13 02:29:22;;;;;;;6.68;4.85;;;;;;;7.11;69.39;100947.00;10387046;28;20511;-68
2021/12/13 02:34:29;;;;;;;8.18;5.10;;;;;;;6.99;69.75;100950.84;10386531;28;20060;-68
2021/12/13 02:39:38;;;;;;;6.97;5.13;;;;;;;7.16;69.31;100952.94;10385946;28;20429;-67
2021/12/13 02:44:44;;;;;;;6.40;5.13;;;;;;;7.21;69.17;100953.66;10386177;28;20063;-68
2021/12/13 02:49:46;;;;;;;8.32;5.45;;;;;;;7.23;69.10;100949.25;10386049;28;20817;-68
2021/12/13 02:55:01;;;;;;;6.68;5.47;;;;;;;7.25;69.14;100951.78;10386133;28;20049;-68
2021/12/13 03:00:20;;;;;;;6.30;5.07;;;;;;;7.20;69.14;100955.38;10386220;28;20152;-68
2021/12/13 03:05:33;;;;;;;6.47;4.88;;;;;;;7.28;69.03;100947.38;10393196;28;20136;-68
2021/12/13 03:10:39;;;;;;;6.75;4.80;;;;;;;7.31;69.09;100951.63;10393307;28;20208;-68
2021/12/13 03:15:47;;;;;;;6.60;4.47;;;;;;;7.23;69.04;100951.84;10392755;28;20152;-68
2021/12/13 03:21:16;;;;;;;10.95;7.13;;;;;;;7.08;69.35;100960.94;10393053;28;20055;-67
2021/12/13 03:26:45;;;;;;;7.78;5.97;;;;;;;7.19;69.25;100952.84;10392945;28;20474;-68
2021/12/13 03:31:55;;;;;;;6.97;5.13;;;;;;;7.25;69.22;100954.41;10393031;28;20478;-68
2021/12/13 03:37:17;;;;;;;7.55;5.43;;;;;;;7.22;68.90;100946.69;10391950;28;20045;-68
2021/12/13 03:42:30;;;;;;;7.55;5.03;;;;;;;7.22;69.09;100947.56;10392717;28;20509;-68
2021/12/13 03:47:40;;;;;;;8.57;5.15;;;;;;;7.16;68.57;100945.16;10391902;28;20054;-68
2021/12/13 03:52:45;;;;;;;21.80;13.40;;;;;;;6.81;68.71;100958.31;10392405;28;20075;-68
2021/12/13 03:57:52;;;;;;;25.00;15.60;;;;;;;6.42;69.27;100962.84;10392628;28;20060;-68
2021/12/13 04:02:57;;;;;;;24.75;15.25;;;;;;;6.08;70.13;100968.00;10388700;28;20060;-68
2021/12/13 04:08:04;;;;;;;32.10;18.25;;;;;;;6.07;70.31;100968.91;10386043;28;20054;-68
2021/12/13 04:13:13;;;;;;;26.67;17.10;;;;;;;6.05;70.51;100965.50;10385216;28;20053;-68
2021/12/13 04:18:29;;;;;;;29.63;17.40;;;;;;;6.03;70.68;100961.22;10384469;28;20144;-68
2021/12/13 04:23:32;;;;;;;31.17;17.65;;;;;;;6.24;70.01;100973.69;10387559;28;20049;-68
2021/12/13 04:28:55;;;;;;;30.05;17.67;;;;;;;6.04;70.59;100979.34;10393120;28;20386;-68
2021/12/13 04:34:00;;;;;;;35.47;19.20;;;;;;;6.15;70.30;100985.16;10392968;28;20546;-68
2021/12/13 04:39:27;;;;;;;41.38;21.63;;;;;;;6.18;69.89;100992.88;10391381;28;20041;-68
2021/12/13 04:44:33;;;;;;;39.75;20.63;;;;;;;6.25;69.95;100988.38;10389489;28;20136;-69
2021/12/13 04:49:39;;;;;;;34.35;19.00;;;;;;;6.32;69.70;100998.59;10390457;28;20049;-68
2021/12/13 04:54:45;;;;;;;29.60;17.77;;;;;;;6.39;69.59;100998.44;10391580;28;20413;-69
2021/12/13 04:59:53;;;;;;;37.85;20.15;;;;;;;6.47;69.43;101012.09;10389665;28;20045;-68
2021/12/13 05:04:57;;;;;;;31.48;19.50;;;;;;;6.52;69.29;101010.22;10390987;28;20057;-69
2021/12/13 05:09:59;;;;;;;33.67;19.23;;;;;;;6.51;69.23;101011.94;10391491;28;20049;-69
2021/12/13 05:15:08;;;;;;;37.28;20.58;;;;;;;6.58;69.28;101017.84;10390012;28;20057;-69
2021/12/13 05:20:20;;;;;;;29.27;18.02;;;;;;;6.57;69.12;101023.97;10387940;28;20497;-69
2021/12/13 05:25:39;;;;;;;27.33;17.20;;;;;;;6.54;69.18;101017.09;10388230;28;20058;-69
2021/12/13 05:31:15;;;;;;;25.70;17.05;;;;;;;6.63;68.83;101035.06;10388987;28;20056;-69
2021/12/13 05:36:36;;;;;;;26.88;16.67;;;;;;;6.60;68.92;101023.84;10385441;28;20052;-69
2021/12/13 05:41:40;;;;;;;29.98;18.52;;;;;;;6.65;68.82;101017.66;10388369;28;20041;-68
2021/12/13 05:46:45;;;;;;;37.83;20.92;;;;;;;6.61;68.79;101021.25;10387256;28;20474;-68
2021/12/13 05:51:53;;;;;;;24.42;16.45;;;;;;;6.53;69.07;101025.75;10387251;28;20052;-69
2021/12/13 05:57:05;;;;;;;31.23;19.70;;;;;;;6.52;69.28;101025.81;10387439;28;20053;-69
2021/12/13 06:02:13;;;;;;;31.90;19.98;;;;;;;6.47;69.25;101030.28;10387128;28;20049;-69
2021/12/13 06:07:21;;;;;;;37.70;21.80;;;;;;;6.44;69.45;101032.94;10387028;28;20508;-70
2021/12/13 06:12:47;;;;;;;30.27;19.02;;;;;;;6.40;69.25;101036.50;10385932;28;20064;-69
2021/12/13 06:17:53;;;;;;;26.73;16.88;;;;;;;6.38;69.33;101035.69;10346828;28;1147737;-70
2021/12/13 06:23:08;;;;;;;39.65;21.15;;;;;;;6.35;69.23;101034.88;10387120;28;20049;-70
2021/12/13 06:28:20;;;;;;;30.90;19.23;;;;;;;6.33;69.03;101030.63;10387376;28;20413;-69
2021/12/13 06:33:23;;;;;;;34.72;20.27;;;;;;;6.27;68.76;101034.22;10387392;28;20171;-69
2021/12/13 06:38:40;;;;;;;31.92;18.75;;;;;;;6.21;69.15;101038.69;10388175;28;20052;-70
2021/12/13 06:43:51;;;;;;;34.33;20.38;;;;;;;6.22;69.08;101040.41;10387588;28;20057;-69
2021/12/13 06:48:54;;;;;;;35.03;20.42;;;;;;;6.29;68.96;101045.44;10387178;28;20053;-69
2021/12/13 06:54:09;;;;;;;52.13;25.90;;;;;;;6.31;69.03;101042.78;10387095;28;20056;-69
2021/12/13 06:59:17;;;;;;;63.53;28.45;;;;;;;6.33;69.21;101047.06;10386892;28;20055;-70
2021/12/13 07:04:19;;;;;;;64.25;26.27;;;;;;;6.32;69.36;101044.50;10387158;28;20136;-70
2021/12/13 07:09:23;;;;;;;42.17;22.00;;;;;;;6.26;69.17;101047.25;10386455;28;20053;-69
2021/12/13 07:14:38;;;;;;;46.90;28.90;;;;;;;6.20;69.14;101050.84;10384453;28;20053;-69
2021/12/13 07:19:43;;;;;;;68.32;33.38;;;;;;;6.16;69.29;101058.72;10384806;28;20420;-69
2021/12/13 07:25:00;;;;;;;37.90;21.90;;;;;;;6.08;69.76;101066.69;10384735;28;20092;-69
2021/12/13 07:30:26;;;;;;;43.17;25.08;;;;;;;6.19;69.63;101069.03;10385622;28;20053;-69
2021/12/13 07:35:33;;;;;;;40.78;23.30;;;;;;;6.39;69.19;101071.19;10383352;28;20405;-69
2021/12/13 07:40:35;;;;;;;43.80;24.52;;;;;;;6.51;68.94;101073.50;10385409;28;20398;-69
2021/12/13 07:45:42;;;;;;;41.45;22.73;;;;;;;6.56;68.92;101074.22;10384882;28;20136;-69
2021/12/13 07:50:55;;;;;;;42.38;22.27;;;;;;;6.65;68.80;101074.00;10383921;28;20054;-72
2021/12/13 07:55:57;;;;;;;49.72;24.42;;;;;;;6.69;68.69;101080.81;10381137;28;20111;-72
2021/12/13 08:01:21;;;;;;;39.15;21.38;;;;;;;6.74;68.75;101078.94;10381016;28;20046;-73
2021/12/13 08:06:33;;;;;;;33.15;19.70;;;;;;;6.87;68.72;101088.16;10383262;28;20489;-72
2021/12/13 08:11:42;;;;;;;39.58;22.48;;;;;;;6.92;68.58;101088.84;10385144;28;20049;-72
2021/12/13 08:16:46;;;;;;;33.45;21.00;;;;;;;6.97;68.37;101087.88;10384300;28;20057;-73
2021/12/13 08:21:58;;;;;;;38.97;25.10;;;;;;;7.08;68.25;101098.00;10384743;28;20049;-73
2021/12/13 08:27:31;;;;;;;49.08;27.48;;;;;;;7.03;67.95;101089.44;10384400;28;20054;-73
2021/12/13 08:32:33;;;;;;;57.55;27.95;;;;;;;7.13;68.31;101098.69;10379940;28;20081;-73
2021/12/13 08:37:39;;;;;;;45.25;24.23;;;;;;;7.17;67.96;101100.31;10384462;28;20054;-73
2021/12/13 08:42:44;;;;;;;39.85;21.88;;;;;;;7.09;68.28;101110.09;10383440;28;20060;-73
2021/12/13 08:47:55;;;;;;;38.33;23.05;;;;;;;6.97;68.67;101119.06;10383108;28;20247;-73
2021/12/13 08:53:03;;;;;;;40.67;24.02;;;;;;;6.97;68.75;101118.22;10383966;28;20064;-73
2021/12/13 08:58:11;;;;;;;54.13;27.45;;;;;;;7.06;68.40;101117.97;10381437;28;20119;-72
2021/12/13 09:03:20;;;;;;;45.10;23.63;;;;;;;7.17;68.43;101119.41;10382852;28;20152;-72
2021/12/13 09:08:47;;;;;;;39.33;21.63;;;;;;;7.36;68.23;101121.50;10385319;28;20503;-73
2021/12/13 09:14:03;;;;;;;58.50;31.17;;;;;;;7.49;67.92;101128.06;10391024;28;20059;-72
2021/12/13 09:19:23;;;;;;;49.35;26.25;;;;;;;7.66;67.76;101126.69;10392383;28;20156;-72
2021/12/13 09:24:36;;;;;;;43.45;25.05;;;;;;;7.68;67.53;101132.69;10408031;28;20057;-72
2021/12/13 09:30:19;;;;;;;41.72;23.33;;;;;;;7.67;67.13;101140.56;10409312;28;20046;-73
2021/12/13 09:35:25;;;;;;;36.72;20.75;;;;;;;7.68;67.95;101139.66;10403515;28;20053;-72
2021/12/13 09:40:41;;;;;;;32.40;19.27;;;;;;;7.61;67.93;101132.94;10407243;28;20133;-73
2021/12/13 09:45:58;;;;;;;111.45;26.17;;;;;;;7.61;68.34;101133.75;10408936;28;20153;-74
2021/12/13 09:51:04;;;;;;;31.15;20.85;;;;;;;7.48;68.42;101142.84;10396983;28;20042;-72
2021/12/13 09:56:14;;;;;;;34.30;20.95;;;;;;;7.34;68.54;101137.16;10406238;28;20144;-73
2021/12/13 10:01:44;;;;;;;46.80;24.05;;;;;;;7.46;68.31;101131.59;10405366;28;20043;-73
2021/12/13 10:06:57;;;;;;;29.98;18.58;;;;;;;7.45;68.85;101122.06;10378023;28;20420;-72
2021/12/13 10:12:07;;;;;;;39.22;21.55;;;;;;;7.62;68.43;101114.66;10386140;28;20045;-72
2021/12/13 10:17:10;;;;;;;32.38;20.08;;;;;;;7.96;67.91;101109.28;10402838;28;20773;-71
2021/12/13 10:22:15;;;;;;;34.75;19.65;;;;;;;8.07;67.29;101109.81;10403741;28;20132;-72
2021/12/13 10:27:19;;;;;;;26.25;15.45;;;;;;;8.19;66.92;101108.63;10405082;28;20053;-71
2021/12/13 10:32:27;;;;;;;31.80;17.13;;;;;;;8.37;67.22;101105.41;10403161;28;20199;-71
2021/12/13 10:37:36;;;;;;;30.17;17.05;;;;;;;8.28;66.75;101100.53;10405888;28;20092;-71
2021/12/13 10:43:01;;;;;;;28.88;18.55;;;;;;;8.42;66.77;101099.19;10406445;28;20970;-71
2021/12/13 10:48:05;;;;;;;27.05;17.67;;;;;;;8.61;66.67;101102.00;10406852;28;20069;-73
2021/12/13 10:53:10;;;;;;;29.98;18.50;;;;;;;8.69;66.25;101102.59;10406956;28;20140;-71
2021/12/13 10:58:24;;;;;;;25.77;17.98;;;;;;;8.79;65.95;101102.25;10406988;28;20510;-71
2021/12/13 11:03:30;;;;;;;21.10;15.35;;;;;;;8.77;66.03;101095.41;10406255;28;20140;-72
2021/12/13 11:08:32;;;;;;;28.30;16.95;;;;;;;8.82;66.12;101081.28;10406087;28;20132;-72
2021/12/13 11:13:37;;;;;;;29.83;16.98;;;;;;;8.81;66.11;101073.53;10406485;28;20046;-72
2021/12/13 11:18:40;;;;;;;21.83;15.75;;;;;;;8.87;66.03;101075.94;10405457;28;20053;-72
2021/12/13 11:23:42;;;;;;;23.30;15.27;;;;;;;8.86;65.92;101079.44;10405491;28;20053;-72
2021/12/13 11:28:45;;;;;;;24.83;16.88;;;;;;;8.95;65.93;101078.25;10405984;28;20041;-72
2021/12/13 11:34:02;;;;;;;27.40;14.38;;;;;;;8.81;66.17;101079.56;10404202;28;20049;-73
2021/12/13 11:39:29;;;;;;;24.40;16.70;;;;;;;8.98;65.90;101065.94;10404214;28;20045;-73
2021/12/13 11:45:07;;;;;;;23.80;15.93;;;;;;;9.00;65.68;101069.34;10405225;28;20057;-72
2021/12/13 11:50:46;;;;;;;17.98;13.57;;;;;;;9.05;65.61;101072.69;10404938;28;20079;-72
2021/12/13 11:56:14;;;;;;;20.92;13.32;;;;;;;9.15;65.40;101067.97;10396102;28;20126;-72
2021/12/13 12:01:53;;;;;;;25.48;14.73;;;;;;;9.29;64.87;101070.94;10357296;28;20045;-72
2021/12/13 12:06:58;;;;;;;19.65;12.98;;;;;;;9.44;65.23;101060.75;10375254;28;20053;-71
2021/12/13 12:12:26;;;;;;;20.33;14.68;;;;;;;9.26;65.16;101058.84;10363184;28;20069;-72
2021/12/13 12:17:29;;;;;;;20.08;13.93;;;;;;;9.39;65.36;101059.25;10402601;28;20058;-72
2021/12/13 12:22:47;;;;;;;19.40;13.82;;;;;;;9.39;65.20;101054.88;10401887;28;20132;-72
2021/12/13 12:27:55;;;;;;;19.50;14.23;;;;;;;9.49;65.17;101051.00;10403090;28;20053;-72
2021/12/13 12:33:01;;;;;;;15.50;12.18;;;;;;;9.52;64.93;101050.88;10403064;28;20053;-72
2021/12/13 12:38:21;;;;;;;18.50;14.25;;;;;;;9.40;65.21;101056.56;10402280;28;20487;-72
2021/12/13 12:43:27;;;;;;;18.20;13.53;;;;;;;9.35;65.25;101055.91;10402995;28;20877;-72
2021/12/13 12:48:34;;;;;;;17.70;13.00;;;;;;;9.34;65.17;101054.19;10409859;28;20055;-72
2021/12/13 12:53:55;;;;;;;19.50;13.50;;;;;;;9.20;65.14;101064.28;10409915;28;20103;-72
2021/12/13 12:59:15;;;;;;;17.00;13.00;;;;;;;9.15;65.45;101062.75;10410472;28;20059;-72
2021/12/13 13:04:45;;;;;;;19.90;14.27;;;;;;;9.20;65.75;101059.06;10409034;28;20129;-72
2021/12/13 13:09:52;;;;;;;19.60;13.25;;;;;;;9.38;65.49;101047.09;10407434;28;20137;-72
2021/12/13 13:15:10;;;;;;;17.38;13.30;;;;;;;9.39;65.73;101054.03;10409189;28;20049;-72
2021/12/13 13:20:18;;;;;;;17.40;12.18;;;;;;;9.42;65.26;101052.13;10409081;28;20077;-72
2021/12/13 13:25:48;;;;;;;16.05;11.50;;;;;;;9.28;65.67;101046.56;10408404;28;20142;-72
2021/12/13 13:31:06;;;;;;;18.73;12.43;;;;;;;9.48;65.37;101041.47;10405833;28;20060;-72
2021/12/13 13:36:11;;;;;;;16.70;11.40;;;;;;;9.45;65.41;101044.19;10408922;28;20050;-72
2021/12/13 13:41:20;;;;;;;12.95;9.57;;;;;;;9.49;65.16;101037.97;10407532;28;20825;-72
2021/12/13 13:46:24;;;;;;;13.07;10.40;;;;;;;9.52;64.92;101035.22;10409050;28;20512;-72
2021/12/13 13:51:26;;;;;;;15.57;12.27;;;;;;;9.42;65.14;101039.09;10407028;28;20057;-72
2021/12/13 13:56:33;;;;;;;15.43;11.82;;;;;;;9.42;65.40;101039.09;10384215;28;20088;-72
2021/12/13 14:02:04;;;;;;;17.80;12.98;;;;;;;9.34;65.47;101046.34;10403364;28;20493;-70
2021/12/13 14:07:06;;;;;;;18.05;12.32;;;;;;;9.40;65.54;101047.91;10378794;28;20508;-71
2021/12/13 14:12:23;;;;;;;14.27;11.15;;;;;;;9.40;65.37;101053.13;10365205;28;20554;-71
2021/12/13 14:17:52;;;;;;;21.48;12.48;;;;;;;9.27;65.76;101039.66;10364379;28;20481;-71
2021/12/13 14:22:58;;;;;;;18.92;12.05;;;;;;;9.22;66.13;101052.03;10364681;28;20050;-71
2021/12/13 14:28:02;;;;;;;17.27;12.27;;;;;;;9.11;66.31;101058.53;10373304;28;20057;-70
2021/12/13 14:33:32;;;;;;;18.42;12.27;;;;;;;8.90;66.55;101056.69;10405869;28;20045;-71
2021/12/13 14:38:36;;;;;;;15.15;11.38;;;;;;;8.89;66.46;101063.69;10405573;28;20136;-71
2021/12/13 14:43:44;;;;;;;18.63;12.32;;;;;;;8.98;66.44;101065.94;10405528;28;20137;-71
2021/12/13 14:48:48;;;;;;;18.75;12.93;;;;;;;9.05;66.32;101062.25;10406108;28;20092;-71
2021/12/13 14:53:50;;;;;;;15.30;11.43;;;;;;;9.09;66.24;101057.75;10405507;28;20139;-71
2021/12/13 14:58:57;;;;;;;20.25;12.30;;;;;;;9.08;66.38;101064.72;10405202;28;20394;-71
2021/12/13 15:04:12;;;;;;;14.52;10.75;;;;;;;9.04;66.50;101059.66;10363981;28;20080;-71
2021/12/13 15:09:31;;;;;;;15.02;11.60;;;;;;;8.96;66.42;101049.50;10376427;28;20068;-72
2021/12/13 15:14:39;;;;;;;15.55;11.35;;;;;;;8.73;66.80;101060.72;10401065;28;20057;-71
2021/12/13 15:19:41;;;;;;;14.65;10.82;;;;;;;8.62;67.06;101055.03;10389568;28;20068;-71
2021/12/13 15:24:43;;;;;;;14.25;9.82;;;;;;;8.56;67.04;101064.81;10387659;28;20092;-71
2021/12/13 15:29:45;;;;;;;15.90;10.20;;;;;;;8.51;67.02;101062.38;10378072;28;20473;-71
2021/12/13 15:34:56;;;;;;;18.45;10.93;;;;;;;8.40;67.48;101059.28;10403347;28;20045;-71
2021/12/13 15:40:16;;;;;;;14.10;10.27;;;;;;;8.48;67.43;101061.63;10395244;28;20057;-71
2021/12/13 15:45:30;;;;;;;13.75;10.52;;;;;;;8.46;67.39;101059.06;10401151;28;20104;-71
2021/12/13 15:50:34;;;;;;;13.63;10.80;;;;;;;8.46;67.45;101059.06;10393426;28;20104;-70
2021/12/13 15:55:51;;;;;;;15.77;11.57;;;;;;;8.52;67.37;101052.78;10378657;28;20627;-72
2021/12/13 16:01:07;;;;;;;15.88;11.40;;;;;;;8.46;67.35;101058.22;10391364;28;20916;-71
2021/12/13 16:06:10;;;;;;;17.15;11.75;;;;;;;8.38;67.69;101062.84;10399239;28;20566;-72
2021/12/13 16:11:29;;;;;;;16.20;11.38;;;;;;;8.38;67.96;101065.44;10377829;28;20057;-71
2021/12/13 16:16:34;;;;;;;22.27;16.17;;;;;;;8.39;67.76;101072.34;10400884;28;20049;-71
2021/12/13 16:21:37;;;;;;;16.10;11.57;;;;;;;8.35;67.79;101071.59;10383420;28;20489;-71
2021/12/13 16:26:42;;;;;;;16.10;11.73;;;;;;;8.34;67.94;101069.06;10387934;28;20638;-71
2021/12/13 16:31:44;;;;;;;13.48;10.80;;;;;;;8.42;67.72;101073.13;10392385;28;20056;-71
2021/12/13 16:36:56;;;;;;;14.77;11.15;;;;;;;8.48;67.60;101082.47;10410808;28;20106;-71
2021/12/13 16:42:03;;;;;;;12.10;9.93;;;;;;;8.48;67.55;101077.25;10408263;28;20164;-71
2021/12/13 16:47:08;;;;;;;15.45;11.63;;;;;;;8.46;67.58;101084.28;10369225;28;20063;-71
2021/12/13 16:52:15;;;;;;;15.52;11.65;;;;;;;8.51;67.48;101077.16;10369254;28;20458;-71
2021/12/13 16:57:22;;;;;;;22.58;15.35;;;;;;;8.49;67.53;101077.22;10409815;28;20056;-71
2021/12/13 17:02:28;;;;;;;24.50;16.92;;;;;;;8.52;67.34;101082.34;10408393;28;20079;-71
2021/12/13 17:07:33;;;;;;;26.50;16.00;;;;;;;8.58;67.32;101083.88;10406815;28;20062;-71
2021/12/13 17:12:58;;;;;;;20.05;13.65;;;;;;;8.47;67.42;101070.34;10406913;28;20140;-70
2021/12/13 17:18:28;;;;;;;18.70;13.70;;;;;;;8.50;67.48;101073.72;10407899;28;20060;-70
2021/12/13 17:23:32;;;;;;;19.08;13.50;;;;;;;8.56;67.38;101075.25;10407878;28;20128;-71
2021/12/13 17:28:38;;;;;;;20.33;14.25;;;;;;;8.53;67.44;101076.19;10371164;28;20133;-70
2021/12/13 17:33:40;;;;;;;22.27;14.13;;;;;;;8.51;67.36;101088.44;10404559;28;20046;-70
2021/12/13 17:38:57;;;;;;;24.20;16.08;;;;;;;8.39;67.65;101094.06;10379204;28;20079;-70
2021/12/13 17:44:15;;;;;;;23.08;14.80;;;;;;;8.31;67.81;101089.97;10383188;28;20057;-70
2021/12/13 17:49:43;;;;;;;28.25;20.40;;;;;;;8.27;67.79;101091.84;10368056;28;20137;-71
2021/12/13 17:54:59;;;;;;;23.23;16.27;;;;;;;8.33;68.07;101088.19;10384035;28;20428;-71
2021/12/13 18:00:29;;;;;;;24.38;16.50;;;;;;;8.37;67.66;101093.25;10402029;28;20493;-71
2021/12/13 18:05:32;;;;;;;24.05;16.52;;;;;;;8.38;67.59;101108.00;10388595;28;20109;-71
2021/12/13 18:10:35;;;;;;;22.50;14.52;;;;;;;8.34;67.71;101110.75;10385025;28;20042;-71
2021/12/13 18:15:44;;;;;;;22.70;16.90;;;;;;;8.35;67.82;101115.03;10387090;28;20409;-71
2021/12/13 18:20:57;;;;;;;22.00;15.57;;;;;;;8.30;68.04;101112.59;10388172;28;20041;-71
2021/12/13 18:26:18;;;;;;;24.17;17.85;;;;;;;8.24;68.14;101112.78;10370085;28;20037;-71
2021/12/13 18:31:22;;;;;;;;;;;;;;;7.95;68.87;101111.06;10379763;28;20125;-71
2021/12/13 18:36:40;;;;;;;26.90;18.98;;;;;;;8.23;68.20;101113.69;10396243;28;19984;-71
2021/12/13 18:41:53;;;;;;;27.45;18.45;;;;;;;8.33;67.88;101116.84;10382410;28;20045;-71
2021/12/13 18:47:03;;;;;;;25.73;19.50;;;;;;;8.28;68.21;101110.94;10406059;28;20132;-71
2021/12/13 18:52:13;;;;;;;27.75;19.42;;;;;;;8.30;68.11;101109.16;10406042;28;20053;-70
2021/12/13 18:57:32;;;;;;;25.90;18.20;;;;;;;8.33;67.93;101109.88;10404963;28;20405;-70
2021/12/13 19:02:49;;;;;;;21.92;17.17;;;;;;;8.32;67.99;101120.38;10419363;28;20041;-71
2021/12/13 19:08:01;;;;;;;24.80;17.23;;;;;;;8.32;67.84;101117.75;10371848;28;20046;-71
2021/12/13 19:13:13;;;;;;;29.42;18.67;;;;;;;8.29;67.87;101117.84;10363611;28;20056;-71
2021/12/13 19:18:22;;;;;;;29.92;20.30;;;;;;;8.21;68.07;101102.47;10364136;28;20334;-71
2021/12/13 19:23:40;;;;;;;29.50;21.20;;;;;;;8.16;68.34;101106.13;10364500;28;20056;-70
2021/12/13 19:28:59;;;;;;;29.83;18.90;;;;;;;8.14;68.20;101108.75;10380775;28;20140;-70
2021/12/13 19:34:16;;;;;;;25.63;18.75;;;;;;;8.17;68.02;101102.59;10363998;28;20042;-71
2021/12/13 19:39:19;;;;;;;22.55;15.70;;;;;;;8.23;68.08;101102.41;10364134;28;20054;-71
2021/12/13 19:44:22;;;;;;;17.10;12.77;;;;;;;8.21;68.01;101099.00;10388984;28;20052;-71
2021/12/13 19:49:32;;;;;;;18.90;14.10;;;;;;;8.23;68.06;101102.41;10373828;28;20402;-71
2021/12/13 19:54:42;;;;;;;22.95;17.95;;;;;;;8.21;68.16;101088.56;10386112;28;20049;-72
2021/12/13 19:59:52;;;;;;;24.98;16.00;;;;;;;8.10;68.34;101088.03;10400991;28;20053;-71
2021/12/13 20:05:25;;;;;;;21.08;14.68;;;;;;;8.02;68.25;101083.03;10403666;28;20136;-71
2021/12/13 20:10:30;;;;;;;20.60;13.57;;;;;;;8.04;68.45;101082.09;10401028;28;20081;-71
2021/12/13 20:15:54;;;;;;;19.83;14.35;;;;;;;8.03;68.28;101080.41;10397915;28;20085;-70
2021/12/13 20:21:00;;;;;;;19.05;12.90;;;;;;;8.01;68.41;101077.00;10403897;28;20063;-70
2021/12/13 20:26:09;;;;;;;19.42;12.88;;;;;;;8.01;68.37;101077.00;10400600;28;20132;-70
2021/12/13 20:31:22;;;;;;;17.83;12.40;;;;;;;8.02;68.31;101063.06;10403545;28;20132;-71
2021/12/13 20:36:33;;;;;;;17.60;13.45;;;;;;;8.08;68.17;101046.38;10403616;28;20405;-70
2021/12/13 20:41:39;;;;;;;17.10;13.38;;;;;;;8.03;68.23;101048.28;10403825;28;20113;-70
2021/12/13 20:46:52;;;;;;;20.60;14.07;;;;;;;8.04;68.09;101049.97;10403975;28;20050;-70
2021/12/13 20:52:04;;;;;;;22.80;14.57;;;;;;;8.01;68.28;101044.88;10404402;28;20128;-71
2021/12/13 20:57:11;;;;;;;20.73;14.93;;;;;;;8.01;68.26;101045.75;10395956;28;20049;-71
2021/12/13 21:02:17;;;;;;;16.80;13.02;;;;;;;8.00;68.23;101050.97;10403192;28;20088;-70
2021/12/13 21:07:24;;;;;;;12.50;9.10;;;;;;;7.92;68.42;101027.78;10408641;28;20085;-71
2021/12/13 21:12:33;;;;;;;16.85;10.88;;;;;;;7.92;68.40;101024.31;10409408;28;20053;-70
2021/12/13 21:17:41;;;;;;;24.13;17.42;;;;;;;7.79;68.58;101029.06;10409682;28;20151;-70
2021/12/13 21:22:55;;;;;;;24.13;14.68;;;;;;;7.71;68.75;101036.25;10407521;28;20041;-70
2021/12/13 21:28:06;;;;;;;19.52;14.90;;;;;;;7.79;68.54;101029.06;10407104;28;20410;-70
2021/12/13 21:33:18;;;;;;;18.48;12.82;;;;;;;7.79;68.51;101033.44;10402235;28;20513;-70
2021/12/13 21:43:59;;;;;;;24.80;17.98;;;;;;;7.80;68.38;101025.56;10409241;28;20513;-71
2021/12/13 21:49:03;;;;;;;30.25;19.67;;;;;;;7.80;68.38;101025.56;10409123;28;20060;-71
2021/12/13 21:54:12;;;;;;;30.15;19.63;;;;;;;7.75;68.56;101035.25;10409294;28;20049;-71
2021/12/13 21:59:26;;;;;;;23.42;14.93;;;;;;;7.73;68.74;101031.84;10399110;28;20144;-71
2021/12/13 22:04:33;;;;;;;21.90;14.27;;;;;;;7.75;68.59;101026.63;10367261;28;20132;-72
2021/12/13 22:09:40;;;;;;;28.30;17.65;;;;;;;7.70;68.78;101025.91;10366280;28;20406;-71
2021/12/13 22:14:57;;;;;;;23.90;14.85;;;;;;;7.67;68.81;101019.03;10366506;28;20129;-71
2021/12/13 22:20:08;;;;;;;19.48;13.52;;;;;;;7.68;68.84;101027.69;10400313;28;20045;-67
2021/12/13 22:25:16;;;;;;;21.55;14.52;;;;;;;7.65;68.75;101031.22;10388450;28;20653;-67
2021/12/13 22:30:26;;;;;;;25.17;15.48;;;;;;;7.63;68.88;101027.81;10395374;28;20136;-67
2021/12/13 22:35:35;;;;;;;16.55;13.13;;;;;;;7.65;68.67;101036.44;10405281;28;20049;-68
2021/12/13 22:40:44;;;;;;;19.90;12.35;;;;;;;7.67;68.66;101026.84;10400560;28;20049;-67
2021/12/13 22:45:49;;;;;;;22.77;12.20;;;;;;;7.75;68.63;101032.66;10412841;28;20057;-67
2021/12/13 22:50:55;;;;;;;14.65;10.98;;;;;;;7.80;68.46;101028.19;10402249;28;20081;-68
2021/12/13 22:56:01;;;;;;;14.93;10.95;;;;;;;7.79;68.23;101026.44;10403130;28;20059;-68
2021/12/13 23:01:11;;;;;;;17.08;13.30;;;;;;;7.73;68.65;101021.44;10400567;28;20076;-68
2021/12/13 23:06:18;;;;;;;24.42;19.52;;;;;;;7.74;68.52;101028.38;10398545;28;20480;-68
2021/12/13 23:16:36;;;;;;;16.85;11.95;;;;;;;7.75;68.46;101031.84;10398525;28;20089;-68
2021/12/13 23:21:46;;;;;;;15.02;10.50;;;;;;;7.72;68.67;101016.28;10400703;28;20052;-68
2021/12/13 23:26:52;;;;;;;16.30;11.55;;;;;;;7.72;68.51;101011.94;10402119;28;20084;-68
2021/12/13 23:31:57;;;;;;;19.08;11.32;;;;;;;7.71;68.62;101010.22;10403949;28;20099;-68
2021/12/13 23:37:05;;;;;;;15.82;10.65;;;;;;;7.71;68.37;101006.78;10419163;28;20054;-68
2021/12/13 23:45:34;;;;;;;21.98;14.98;;;;;;;7.48;68.70;101002.28;10403818;28;20049;-68
2021/12/13 23:47:42;;;;;;;24.00;15.05;;;;;;;7.46;68.90;101006.69;10402142;28;20581;-68
2021/12/13 23:52:49;;;;;;;20.90;14.18;;;;;;;7.50;68.93;101010.03;10403442;28;20045;-68
2021/12/13 23:57:55;;;;;;;20.15;14.45;;;;;;;7.40;69.00;101008.59;10396914;28;20060;-68
